sensor_id;sensor_type;location;lat;lon;timestamp;P1;durP1;ratioP1;P2;durP2;ratioP2
11604;SDS011;5858;43.076;25.626;2022-12-18T01:39:30;6.60;;;3.57;;
11604;SDS011;5858;43.076;25.626;2022-12-18T01:45:41;10.60;;;4.37;;
11604;SDS011;5858;43.076;25.626;2022-12-18T01:48:38;4.73;;;4.27;;
11604;SDS011;5858;43.076;25.626;2022-12-18T01:51:07;5.83;;;3.63;;
11604;SDS011;5858;43.076;25.626;2022-12-18T01:53:49;4.70;;;3.20;;
11604;SDS011;5858;43.076;25.626;2022-12-18T01:56:33;7.27;;;4.17;;
11604;SDS011;5858;43.076;25.626;2022-12-18T01:59:20;5.57;;;3.53;;
11604;SDS011;5858;43.076;25.626;2022-12-18T02:02:50;5.07;;;3.53;;
11604;SDS011;5858;43.076;25.626;2022-12-18T02:05:27;7.73;;;4.30;;
11604;SDS011;5858;43.076;25.626;2022-12-18T02:08:43;6.63;;;3.77;;
11604;SDS011;5858;43.076;25.626;2022-12-18T02:18:54;4.97;;;3.53;;
11604;SDS011;5858;43.076;25.626;2022-12-18T02:22:06;3.60;;;3.17;;
11604;SDS011;5858;43.076;25.626;2022-12-18T02:25:23;4.13;;;3.50;;
11604;SDS011;5858;43.076;25.626;2022-12-18T02:28:41;3.87;;;3.10;;
11604;SDS011;5858;43.076;25.626;2022-12-18T02:35:26;5.10;;;3.73;;
11604;SDS011;5858;43.076;25.626;2022-12-18T02:38:15;4.93;;;4.00;;
11604;SDS011;5858;43.076;25.626;2022-12-18T02:41:21;6.03;;;4.30;;
11604;SDS011;5858;43.076;25.626;2022-12-18T02:47:59;7.07;;;4.80;;
11604;SDS011;5858;43.076;25.626;2022-12-18T02:55:13;7.90;;;5.97;;
11604;SDS011;5858;43.076;25.626;2022-12-18T02:58:57;9.20;;;6.17;;
11604;SDS011;5858;43.076;25.626;2022-12-18T03:01:41;7.70;;;5.63;;
11604;SDS011;5858;43.076;25.626;2022-12-18T03:04:37;9.43;;;6.73;;
11604;SDS011;5858;43.076;25.626;2022-12-18T03:07:33;9.67;;;6.43;;
11604;SDS011;5858;43.076;25.626;2022-12-18T03:23:42;12.57;;;7.77;;
11604;SDS011;5858;43.076;25.626;2022-12-18T03:26:40;8.07;;;6.90;;
11604;SDS011;5858;43.076;25.626;2022-12-18T03:29:35;9.50;;;6.77;;
11604;SDS011;5858;43.076;25.626;2022-12-18T03:53:39;11.10;;;7.60;;
11604;SDS011;5858;43.076;25.626;2022-12-18T03:57:15;11.53;;;7.80;;
11604;SDS011;5858;43.076;25.626;2022-12-18T04:00:27;12.13;;;7.27;;
11604;SDS011;5858;43.076;25.626;2022-12-18T04:04:05;11.07;;;7.87;;
11604;SDS011;5858;43.076;25.626;2022-12-18T04:07:04;10.83;;;7.70;;
11604;SDS011;5858;43.076;25.626;2022-12-18T04:32:08;14.50;;;7.97;;
11604;SDS011;5858;43.076;25.626;2022-12-18T04:38:30;14.83;;;8.40;;
11604;SDS011;5858;43.076;25.626;2022-12-18T04:41:48;12.73;;;8.27;;
11604;SDS011;5858;43.076;25.626;2022-12-18T05:01:33;12.47;;;8.30;;
11604;SDS011;5858;43.076;25.626;2022-12-18T05:04:23;14.40;;;8.87;;
11604;SDS011;5858;43.076;25.626;2022-12-18T05:38:25;16.43;;;10.23;;
11604;SDS011;5858;43.076;25.626;2022-12-18T05:41:07;13.90;;;9.07;;
11604;SDS011;5858;43.076;25.626;2022-12-18T05:44:14;15.83;;;9.40;;
11604;SDS011;5858;43.076;25.626;2022-12-18T05:47:08;11.60;;;8.17;;
11604;SDS011;5858;43.076;25.626;2022-12-18T05:50:01;12.33;;;8.13;;
11604;SDS011;5858;43.076;25.626;2022-12-18T05:59:38;13.90;;;9.67;;
11604;SDS011;5858;43.076;25.626;2022-12-18T06:05:48;14.53;;;10.37;;
11604;SDS011;5858;43.076;25.626;2022-12-18T06:08:19;9.87;;;8.20;;
11604;SDS011;5858;43.076;25.626;2022-12-18T06:11:06;17.20;;;8.27;;
11604;SDS011;5858;43.076;25.626;2022-12-18T06:13:38;11.20;;;8.37;;
11604;SDS011;5858;43.076;25.626;2022-12-18T06:16:07;9.87;;;7.27;;
11604;SDS011;5858;43.076;25.626;2022-12-18T06:18:37;10.20;;;7.63;;
11604;SDS011;5858;43.076;25.626;2022-12-18T06:21:07;10.50;;;7.00;;
11604;SDS011;5858;43.076;25.626;2022-12-18T06:23:34;10.37;;;7.53;;
11604;SDS011;5858;43.076;25.626;2022-12-18T06:26:05;11.17;;;7.73;;
11604;SDS011;5858;43.076;25.626;2022-12-18T06:28:39;12.23;;;7.50;;
11604;SDS011;5858;43.076;25.626;2022-12-18T06:31:12;13.07;;;8.40;;
11604;SDS011;5858;43.076;25.626;2022-12-18T06:33:48;12.77;;;8.10;;
11604;SDS011;5858;43.076;25.626;2022-12-18T06:36:45;12.37;;;7.83;;
11604;SDS011;5858;43.076;25.626;2022-12-18T06:45:57;16.63;;;9.47;;
11604;SDS011;5858;43.076;25.626;2022-12-18T06:48:54;16.70;;;9.77;;
11604;SDS011;5858;43.076;25.626;2022-12-18T06:51:21;12.87;;;9.37;;
11604;SDS011;5858;43.076;25.626;2022-12-18T06:53:50;20.10;;;11.93;;
11604;SDS011;5858;43.076;25.626;2022-12-18T06:56:18;14.87;;;10.80;;
11604;SDS011;5858;43.076;25.626;2022-12-18T06:58:51;13.97;;;9.43;;
11604;SDS011;5858;43.076;25.626;2022-12-18T07:01:19;15.07;;;10.60;;
11604;SDS011;5858;43.076;25.626;2022-12-18T07:04:09;19.27;;;10.57;;
11604;SDS011;5858;43.076;25.626;2022-12-18T07:07:03;22.00;;;11.97;;
11604;SDS011;5858;43.076;25.626;2022-12-18T07:09:35;22.90;;;14.30;;
11604;SDS011;5858;43.076;25.626;2022-12-18T07:12:03;24.97;;;14.53;;
11604;SDS011;5858;43.076;25.626;2022-12-18T07:14:33;25.87;;;15.47;;
11604;SDS011;5858;43.076;25.626;2022-12-18T07:17:02;21.00;;;13.07;;
11604;SDS011;5858;43.076;25.626;2022-12-18T07:19:31;17.60;;;11.87;;
11604;SDS011;5858;43.076;25.626;2022-12-18T07:21:58;15.73;;;10.00;;
11604;SDS011;5858;43.076;25.626;2022-12-18T07:24:27;23.87;;;11.13;;
11604;SDS011;5858;43.076;25.626;2022-12-18T07:26:54;13.83;;;8.53;;
11604;SDS011;5858;43.076;25.626;2022-12-18T07:29:23;10.67;;;8.27;;
11604;SDS011;5858;43.076;25.626;2022-12-18T07:32:01;14.77;;;9.20;;
11604;SDS011;5858;43.076;25.626;2022-12-18T07:53:51;10.60;;;8.53;;
11604;SDS011;5858;43.076;25.626;2022-12-18T07:56:53;12.00;;;7.63;;
11604;SDS011;5858;43.076;25.626;2022-12-18T07:59:32;14.27;;;8.33;;
11604;SDS011;5858;43.076;25.626;2022-12-18T08:02:04;16.53;;;8.03;;
11604;SDS011;5858;43.076;25.626;2022-12-18T08:04:33;13.27;;;8.43;;
11604;SDS011;5858;43.076;25.626;2022-12-18T08:07:14;12.67;;;7.07;;
11604;SDS011;5858;43.076;25.626;2022-12-18T08:09:42;13.73;;;8.10;;
11604;SDS011;5858;43.076;25.626;2022-12-18T08:12:13;15.63;;;8.00;;
11604;SDS011;5858;43.076;25.626;2022-12-18T08:14:42;14.53;;;8.23;;
11604;SDS011;5858;43.076;25.626;2022-12-18T08:17:23;11.93;;;7.53;;
11604;SDS011;5858;43.076;25.626;2022-12-18T08:19:53;16.37;;;10.17;;
11604;SDS011;5858;43.076;25.626;2022-12-18T08:22:34;16.93;;;11.20;;
11604;SDS011;5858;43.076;25.626;2022-12-18T08:25:07;16.80;;;11.37;;
11604;SDS011;5858;43.076;25.626;2022-12-18T08:27:35;33.00;;;18.37;;
11604;SDS011;5858;43.076;25.626;2022-12-18T08:30:03;35.43;;;19.80;;
11604;SDS011;5858;43.076;25.626;2022-12-18T08:32:33;44.13;;;24.90;;
11604;SDS011;5858;43.076;25.626;2022-12-18T08:35:01;24.30;;;15.87;;
11604;SDS011;5858;43.076;25.626;2022-12-18T08:37:29;17.93;;;11.30;;
11604;SDS011;5858;43.076;25.626;2022-12-18T08:39:56;14.17;;;10.10;;
11604;SDS011;5858;43.076;25.626;2022-12-18T08:42:25;17.33;;;10.27;;
11604;SDS011;5858;43.076;25.626;2022-12-18T08:45:10;14.17;;;9.90;;
11604;SDS011;5858;43.076;25.626;2022-12-18T08:47:37;14.87;;;9.63;;
11604;SDS011;5858;43.076;25.626;2022-12-18T08:50:04;15.47;;;11.00;;
11604;SDS011;5858;43.076;25.626;2022-12-18T08:52:32;15.77;;;10.07;;
11604;SDS011;5858;43.076;25.626;2022-12-18T08:54:59;16.60;;;11.10;;
11604;SDS011;5858;43.076;25.626;2022-12-18T08:57:28;14.40;;;10.93;;
11604;SDS011;5858;43.076;25.626;2022-12-18T09:03:15;14.50;;;9.90;;
11604;SDS011;5858;43.076;25.626;2022-12-18T09:05:45;18.20;;;10.30;;
11604;SDS011;5858;43.076;25.626;2022-12-18T09:08:13;18.53;;;11.70;;
11604;SDS011;5858;43.076;25.626;2022-12-18T09:10:41;19.63;;;11.17;;
11604;SDS011;5858;43.076;25.626;2022-12-18T09:15:53;16.13;;;10.80;;
11604;SDS011;5858;43.076;25.626;2022-12-18T09:18:30;14.57;;;9.27;;
11604;SDS011;5858;43.076;25.626;2022-12-18T09:21:07;17.20;;;10.57;;
11604;SDS011;5858;43.076;25.626;2022-12-18T09:23:36;14.60;;;9.80;;
11604;SDS011;5858;43.076;25.626;2022-12-18T09:26:07;13.73;;;9.00;;
11604;SDS011;5858;43.076;25.626;2022-12-18T09:28:38;13.77;;;9.33;;
11604;SDS011;5858;43.076;25.626;2022-12-18T09:31:06;14.63;;;9.07;;
11604;SDS011;5858;43.076;25.626;2022-12-18T09:33:51;16.10;;;9.57;;
11604;SDS011;5858;43.076;25.626;2022-12-18T09:36:19;15.07;;;9.17;;
11604;SDS011;5858;43.076;25.626;2022-12-18T09:38:48;15.80;;;10.80;;
11604;SDS011;5858;43.076;25.626;2022-12-18T09:41:24;17.77;;;9.10;;
11604;SDS011;5858;43.076;25.626;2022-12-18T09:44:03;13.20;;;8.30;;
11604;SDS011;5858;43.076;25.626;2022-12-18T09:46:38;13.33;;;8.07;;
11604;SDS011;5858;43.076;25.626;2022-12-18T09:49:11;12.30;;;8.07;;
11604;SDS011;5858;43.076;25.626;2022-12-18T09:51:43;12.27;;;8.67;;
11604;SDS011;5858;43.076;25.626;2022-12-18T09:54:22;11.03;;;7.90;;
11604;SDS011;5858;43.076;25.626;2022-12-18T09:56:54;13.83;;;9.40;;
11604;SDS011;5858;43.076;25.626;2022-12-18T09:59:24;14.97;;;8.90;;
11604;SDS011;5858;43.076;25.626;2022-12-18T10:02:00;16.97;;;10.43;;
11604;SDS011;5858;43.076;25.626;2022-12-18T10:04:40;15.00;;;9.83;;
11604;SDS011;5858;43.076;25.626;2022-12-18T10:07:08;14.37;;;8.80;;
11604;SDS011;5858;43.076;25.626;2022-12-18T10:09:51;15.53;;;10.20;;
11604;SDS011;5858;43.076;25.626;2022-12-18T10:12:27;15.63;;;9.67;;
11604;SDS011;5858;43.076;25.626;2022-12-18T10:15:27;16.80;;;11.17;;
11604;SDS011;5858;43.076;25.626;2022-12-18T10:18:01;19.97;;;12.57;;
11604;SDS011;5858;43.076;25.626;2022-12-18T10:20:46;15.67;;;9.87;;
11604;SDS011;5858;43.076;25.626;2022-12-18T10:23:20;14.30;;;8.97;;
11604;SDS011;5858;43.076;25.626;2022-12-18T10:25:55;13.20;;;7.60;;
11604;SDS011;5858;43.076;25.626;2022-12-18T10:28:29;15.30;;;9.20;;
11604;SDS011;5858;43.076;25.626;2022-12-18T10:31:00;17.13;;;9.93;;
11604;SDS011;5858;43.076;25.626;2022-12-18T10:34:01;15.03;;;9.17;;
11604;SDS011;5858;43.076;25.626;2022-12-18T10:36:28;16.53;;;10.33;;
11604;SDS011;5858;43.076;25.626;2022-12-18T10:38:59;15.73;;;9.97;;
11604;SDS011;5858;43.076;25.626;2022-12-18T10:41:41;13.57;;;9.27;;
11604;SDS011;5858;43.076;25.626;2022-12-18T10:44:16;13.53;;;8.70;;
11604;SDS011;5858;43.076;25.626;2022-12-18T10:47:02;13.60;;;8.87;;
11604;SDS011;5858;43.076;25.626;2022-12-18T10:49:32;12.33;;;9.07;;
11604;SDS011;5858;43.076;25.626;2022-12-18T10:52:06;11.00;;;8.07;;
11604;SDS011;5858;43.076;25.626;2022-12-18T10:54:45;14.07;;;8.67;;
11604;SDS011;5858;43.076;25.626;2022-12-18T10:57:15;13.03;;;8.47;;
11604;SDS011;5858;43.076;25.626;2022-12-18T10:59:51;18.03;;;9.27;;
11604;SDS011;5858;43.076;25.626;2022-12-18T11:02:28;19.27;;;11.13;;
11604;SDS011;5858;43.076;25.626;2022-12-18T11:05:01;15.07;;;9.03;;
11604;SDS011;5858;43.076;25.626;2022-12-18T11:07:45;13.13;;;8.33;;
11604;SDS011;5858;43.076;25.626;2022-12-18T11:10:16;13.43;;;9.27;;
11604;SDS011;5858;43.076;25.626;2022-12-18T11:12:44;14.07;;;9.37;;
11604;SDS011;5858;43.076;25.626;2022-12-18T11:15:15;15.60;;;9.20;;
11604;SDS011;5858;43.076;25.626;2022-12-18T11:17:48;14.70;;;10.03;;
11604;SDS011;5858;43.076;25.626;2022-12-18T11:20:21;11.20;;;7.80;;
11604;SDS011;5858;43.076;25.626;2022-12-18T11:22:57;15.87;;;9.57;;
11604;SDS011;5858;43.076;25.626;2022-12-18T11:25:26;15.43;;;8.70;;
11604;SDS011;5858;43.076;25.626;2022-12-18T11:27:54;16.33;;;9.10;;
11604;SDS011;5858;43.076;25.626;2022-12-18T11:30:39;15.03;;;9.43;;
11604;SDS011;5858;43.076;25.626;2022-12-18T11:33:09;13.70;;;8.20;;
11604;SDS011;5858;43.076;25.626;2022-12-18T11:35:43;11.83;;;8.73;;
11604;SDS011;5858;43.076;25.626;2022-12-18T11:38:17;14.30;;;8.97;;
11604;SDS011;5858;43.076;25.626;2022-12-18T11:40:51;13.83;;;9.17;;
11604;SDS011;5858;43.076;25.626;2022-12-18T11:43:26;12.27;;;7.67;;
11604;SDS011;5858;43.076;25.626;2022-12-18T11:46:04;12.53;;;8.30;;
11604;SDS011;5858;43.076;25.626;2022-12-18T11:48:36;15.97;;;9.13;;
11604;SDS011;5858;43.076;25.626;2022-12-18T11:51:09;18.80;;;11.43;;
11604;SDS011;5858;43.076;25.626;2022-12-18T11:53:41;42.57;;;19.30;;
11604;SDS011;5858;43.076;25.626;2022-12-18T11:56:13;32.97;;;16.40;;
11604;SDS011;5858;43.076;25.626;2022-12-18T11:58:54;26.77;;;12.77;;
11604;SDS011;5858;43.076;25.626;2022-12-18T12:01:32;25.03;;;13.00;;
11604;SDS011;5858;43.076;25.626;2022-12-18T12:04:15;25.73;;;13.50;;
11604;SDS011;5858;43.076;25.626;2022-12-18T12:07:21;16.37;;;10.70;;
11604;SDS011;5858;43.076;25.626;2022-12-18T12:10:00;16.97;;;10.93;;
11604;SDS011;5858;43.076;25.626;2022-12-18T12:12:50;16.63;;;12.02;;
11604;SDS011;5858;43.076;25.626;2022-12-18T12:15:31;19.53;;;11.10;;
11604;SDS011;5858;43.076;25.626;2022-12-18T12:18:15;17.97;;;10.77;;
11604;SDS011;5858;43.076;25.626;2022-12-18T12:20:53;15.20;;;10.40;;
11604;SDS011;5858;43.076;25.626;2022-12-18T12:23:48;16.77;;;10.67;;
11604;SDS011;5858;43.076;25.626;2022-12-18T12:26:32;16.77;;;10.67;;
11604;SDS011;5858;43.076;25.626;2022-12-18T12:29:07;18.53;;;11.50;;
11604;SDS011;5858;43.076;25.626;2022-12-18T12:31:50;15.83;;;10.53;;
11604;SDS011;5858;43.076;25.626;2022-12-18T12:34:38;19.03;;;11.80;;
11604;SDS011;5858;43.076;25.626;2022-12-18T12:37:38;17.87;;;11.53;;
11604;SDS011;5858;43.076;25.626;2022-12-18T12:40:17;21.83;;;12.80;;
11604;SDS011;5858;43.076;25.626;2022-12-18T12:42:46;18.77;;;12.20;;
11604;SDS011;5858;43.076;25.626;2022-12-18T12:45:38;15.80;;;11.27;;
11604;SDS011;5858;43.076;25.626;2022-12-18T12:48:15;20.87;;;13.20;;
11604;SDS011;5858;43.076;25.626;2022-12-18T12:50:45;20.80;;;12.43;;
11604;SDS011;5858;43.076;25.626;2022-12-18T12:53:17;17.43;;;11.87;;
11604;SDS011;5858;43.076;25.626;2022-12-18T12:55:50;16.93;;;11.00;;
11604;SDS011;5858;43.076;25.626;2022-12-18T12:58:21;16.37;;;11.13;;
11604;SDS011;5858;43.076;25.626;2022-12-18T13:00:58;18.30;;;11.37;;
11604;SDS011;5858;43.076;25.626;2022-12-18T13:03:43;15.90;;;10.33;;
11604;SDS011;5858;43.076;25.626;2022-12-18T13:06:41;17.47;;;11.83;;
11604;SDS011;5858;43.076;25.626;2022-12-18T13:09:17;19.27;;;11.10;;
11604;SDS011;5858;43.076;25.626;2022-12-18T13:11:46;15.20;;;10.30;;
11604;SDS011;5858;43.076;25.626;2022-12-18T13:14:31;18.40;;;11.30;;
11604;SDS011;5858;43.076;25.626;2022-12-18T13:20:14;16.80;;;10.27;;
11604;SDS011;5858;43.076;25.626;2022-12-18T13:22:43;15.37;;;10.50;;
11604;SDS011;5858;43.076;25.626;2022-12-18T13:28:08;16.67;;;11.23;;
11604;SDS011;5858;43.076;25.626;2022-12-18T13:30:41;19.20;;;12.00;;
11604;SDS011;5858;43.076;25.626;2022-12-18T13:36:27;18.23;;;11.73;;
11604;SDS011;5858;43.076;25.626;2022-12-18T13:45:43;18.17;;;10.87;;
11604;SDS011;5858;43.076;25.626;2022-12-18T13:48:18;17.90;;;11.57;;
11604;SDS011;5858;43.076;25.626;2022-12-18T13:53:50;20.87;;;13.67;;
11604;SDS011;5858;43.076;25.626;2022-12-18T13:56:32;25.33;;;15.83;;
11604;SDS011;5858;43.076;25.626;2022-12-18T13:59:25;21.13;;;15.20;;
11604;SDS011;5858;43.076;25.626;2022-12-18T14:02:13;23.73;;;14.90;;
11604;SDS011;5858;43.076;25.626;2022-12-18T14:04:44;20.33;;;13.83;;
11604;SDS011;5858;43.076;25.626;2022-12-18T14:07:30;34.03;;;19.23;;
11604;SDS011;5858;43.076;25.626;2022-12-18T14:10:11;31.50;;;18.10;;
11604;SDS011;5858;43.076;25.626;2022-12-18T14:12:44;29.13;;;18.13;;
11604;SDS011;5858;43.076;25.626;2022-12-18T14:15:32;24.03;;;15.23;;
11604;SDS011;5858;43.076;25.626;2022-12-18T14:18:18;23.77;;;15.93;;
11604;SDS011;5858;43.076;25.626;2022-12-18T14:21:03;25.87;;;14.10;;
11604;SDS011;5858;43.076;25.626;2022-12-18T14:23:43;24.10;;;14.43;;
11604;SDS011;5858;43.076;25.626;2022-12-18T14:26:27;22.00;;;13.63;;
11604;SDS011;5858;43.076;25.626;2022-12-18T14:29:23;20.90;;;12.63;;
11604;SDS011;5858;43.076;25.626;2022-12-18T14:32:10;30.40;;;17.33;;
11604;SDS011;5858;43.076;25.626;2022-12-18T14:34:40;21.70;;;14.03;;
11604;SDS011;5858;43.076;25.626;2022-12-18T14:37:09;24.00;;;14.10;;
11604;SDS011;5858;43.076;25.626;2022-12-18T14:39:39;20.73;;;13.63;;
11604;SDS011;5858;43.076;25.626;2022-12-18T14:42:09;20.83;;;13.17;;
11604;SDS011;5858;43.076;25.626;2022-12-18T14:44:39;22.30;;;13.90;;
11604;SDS011;5858;43.076;25.626;2022-12-18T14:47:12;27.10;;;17.77;;
11604;SDS011;5858;43.076;25.626;2022-12-18T14:49:43;21.63;;;13.73;;
11604;SDS011;5858;43.076;25.626;2022-12-18T14:52:18;19.50;;;11.63;;
11604;SDS011;5858;43.076;25.626;2022-12-18T14:54:55;19.50;;;11.90;;
11604;SDS011;5858;43.076;25.626;2022-12-18T14:57:23;22.90;;;14.90;;
11604;SDS011;5858;43.076;25.626;2022-12-18T14:59:52;20.70;;;13.40;;
11604;SDS011;5858;43.076;25.626;2022-12-18T15:02:22;21.40;;;14.00;;
11604;SDS011;5858;43.076;25.626;2022-12-18T15:05:00;17.83;;;11.63;;
11604;SDS011;5858;43.076;25.626;2022-12-18T15:07:39;26.30;;;14.13;;
11604;SDS011;5858;43.076;25.626;2022-12-18T15:10:10;22.87;;;14.13;;
11604;SDS011;5858;43.076;25.626;2022-12-18T15:12:40;30.17;;;16.73;;
11604;SDS011;5858;43.076;25.626;2022-12-18T15:18:12;20.63;;;13.67;;
11604;SDS011;5858;43.076;25.626;2022-12-18T15:20:44;19.43;;;13.40;;
11604;SDS011;5858;43.076;25.626;2022-12-18T15:23:17;20.73;;;13.20;;
11604;SDS011;5858;43.076;25.626;2022-12-18T15:25:47;22.00;;;13.57;;
11604;SDS011;5858;43.076;25.626;2022-12-18T15:28:18;22.43;;;13.37;;
11604;SDS011;5858;43.076;25.626;2022-12-18T15:30:58;25.93;;;14.07;;
11604;SDS011;5858;43.076;25.626;2022-12-18T15:33:30;26.00;;;15.37;;
11604;SDS011;5858;43.076;25.626;2022-12-18T15:36:01;24.30;;;15.43;;
11604;SDS011;5858;43.076;25.626;2022-12-18T15:38:30;25.73;;;14.63;;
11604;SDS011;5858;43.076;25.626;2022-12-18T15:40:58;103.97;;;43.27;;
11604;SDS011;5858;43.076;25.626;2022-12-18T15:43:26;70.17;;;32.97;;
11604;SDS011;5858;43.076;25.626;2022-12-18T15:46:05;26.23;;;16.37;;
11604;SDS011;5858;43.076;25.626;2022-12-18T15:48:33;19.50;;;12.43;;
11604;SDS011;5858;43.076;25.626;2022-12-18T15:51:08;20.50;;;13.43;;
11604;SDS011;5858;43.076;25.626;2022-12-18T15:53:40;22.17;;;13.60;;
11604;SDS011;5858;43.076;25.626;2022-12-18T15:56:09;25.57;;;15.53;;
11604;SDS011;5858;43.076;25.626;2022-12-18T15:58:57;27.67;;;16.87;;
11604;SDS011;5858;43.076;25.626;2022-12-18T16:01:27;28.20;;;16.07;;
11604;SDS011;5858;43.076;25.626;2022-12-18T16:03:56;23.13;;;14.17;;
11604;SDS011;5858;43.076;25.626;2022-12-18T16:06:25;23.27;;;14.37;;
11604;SDS011;5858;43.076;25.626;2022-12-18T16:08:52;28.43;;;16.90;;
11604;SDS011;5858;43.076;25.626;2022-12-18T16:11:21;27.73;;;15.33;;
11604;SDS011;5858;43.076;25.626;2022-12-18T16:14:03;24.80;;;15.07;;
11604;SDS011;5858;43.076;25.626;2022-12-18T16:16:31;24.53;;;15.43;;
11604;SDS011;5858;43.076;25.626;2022-12-18T16:18:58;28.17;;;15.80;;
11604;SDS011;5858;43.076;25.626;2022-12-18T16:21:29;27.27;;;15.97;;
11604;SDS011;5858;43.076;25.626;2022-12-18T16:23:56;33.37;;;18.27;;
11604;SDS011;5858;43.076;25.626;2022-12-18T16:26:23;24.83;;;14.73;;
11604;SDS011;5858;43.076;25.626;2022-12-18T16:28:51;33.43;;;23.20;;
11604;SDS011;5858;43.076;25.626;2022-12-18T16:31:18;26.03;;;15.00;;
11604;SDS011;5858;43.076;25.626;2022-12-18T16:33:45;27.53;;;15.57;;
11604;SDS011;5858;43.076;25.626;2022-12-18T16:36:13;30.20;;;18.13;;
11604;SDS011;5858;43.076;25.626;2022-12-18T16:38:41;29.17;;;16.63;;
11604;SDS011;5858;43.076;25.626;2022-12-18T16:41:14;24.87;;;14.63;;
11604;SDS011;5858;43.076;25.626;2022-12-18T16:43:57;29.67;;;18.00;;
11604;SDS011;5858;43.076;25.626;2022-12-18T16:46:24;29.27;;;19.37;;
11604;SDS011;5858;43.076;25.626;2022-12-18T16:48:52;26.90;;;16.30;;
11604;SDS011;5858;43.076;25.626;2022-12-18T16:51:19;23.03;;;14.40;;
11604;SDS011;5858;43.076;25.626;2022-12-18T16:53:47;27.13;;;17.23;;
11604;SDS011;5858;43.076;25.626;2022-12-18T16:56:14;25.83;;;15.70;;
11604;SDS011;5858;43.076;25.626;2022-12-18T16:58:41;25.17;;;15.00;;
11604;SDS011;5858;43.076;25.626;2022-12-18T17:01:09;24.10;;;14.07;;
11604;SDS011;5858;43.076;25.626;2022-12-18T17:03:37;25.00;;;14.70;;
11604;SDS011;5858;43.076;25.626;2022-12-18T17:06:07;23.60;;;13.83;;
11604;SDS011;5858;43.076;25.626;2022-12-18T17:08:35;23.93;;;15.13;;
11604;SDS011;5858;43.076;25.626;2022-12-18T17:11:07;23.33;;;14.27;;
11604;SDS011;5858;43.076;25.626;2022-12-18T17:13:34;29.50;;;19.37;;
11604;SDS011;5858;43.076;25.626;2022-12-18T17:16:04;26.10;;;14.83;;
11604;SDS011;5858;43.076;25.626;2022-12-18T17:18:32;26.40;;;17.07;;
11604;SDS011;5858;43.076;25.626;2022-12-18T17:21:00;35.20;;;22.07;;
11604;SDS011;5858;43.076;25.626;2022-12-18T17:23:28;25.03;;;16.03;;
11604;SDS011;5858;43.076;25.626;2022-12-18T17:25:56;22.03;;;13.97;;
11604;SDS011;5858;43.076;25.626;2022-12-18T17:28:26;22.27;;;14.13;;
11604;SDS011;5858;43.076;25.626;2022-12-18T17:30:54;27.93;;;17.23;;
11604;SDS011;5858;43.076;25.626;2022-12-18T17:33:22;23.37;;;13.87;;
11604;SDS011;5858;43.076;25.626;2022-12-18T17:35:49;36.50;;;20.63;;
11604;SDS011;5858;43.076;25.626;2022-12-18T17:38:19;25.60;;;15.10;;
11604;SDS011;5858;43.076;25.626;2022-12-18T17:40:46;24.13;;;15.30;;
11604;SDS011;5858;43.076;25.626;2022-12-18T17:43:13;26.97;;;14.80;;
11604;SDS011;5858;43.076;25.626;2022-12-18T17:45:42;20.77;;;12.60;;
11604;SDS011;5858;43.076;25.626;2022-12-18T17:48:09;21.40;;;12.60;;
11604;SDS011;5858;43.076;25.626;2022-12-18T17:50:36;27.40;;;16.90;;
11604;SDS011;5858;43.076;25.626;2022-12-18T17:53:03;18.77;;;11.97;;
11604;SDS011;5858;43.076;25.626;2022-12-18T17:55:31;19.30;;;11.30;;
11604;SDS011;5858;43.076;25.626;2022-12-18T17:57:58;21.33;;;12.70;;
11604;SDS011;5858;43.076;25.626;2022-12-18T18:00:25;21.57;;;13.33;;
11604;SDS011;5858;43.076;25.626;2022-12-18T18:02:55;20.47;;;12.70;;
11604;SDS011;5858;43.076;25.626;2022-12-18T18:05:22;24.43;;;15.50;;
11604;SDS011;5858;43.076;25.626;2022-12-18T18:07:49;22.77;;;15.20;;
11604;SDS011;5858;43.076;25.626;2022-12-18T18:10:22;23.40;;;14.43;;
11604;SDS011;5858;43.076;25.626;2022-12-18T18:12:49;25.23;;;13.60;;
11604;SDS011;5858;43.076;25.626;2022-12-18T18:15:39;20.80;;;13.70;;
11604;SDS011;5858;43.076;25.626;2022-12-18T18:18:08;23.07;;;13.83;;
11604;SDS011;5858;43.076;25.626;2022-12-18T18:20:38;36.00;;;20.70;;
11604;SDS011;5858;43.076;25.626;2022-12-18T18:23:06;21.37;;;13.33;;
11604;SDS011;5858;43.076;25.626;2022-12-18T18:25:34;24.17;;;13.67;;
11604;SDS011;5858;43.076;25.626;2022-12-18T18:28:02;24.40;;;13.07;;
11604;SDS011;5858;43.076;25.626;2022-12-18T18:30:30;22.70;;;13.67;;
11604;SDS011;5858;43.076;25.626;2022-12-18T18:32:58;21.27;;;13.47;;
11604;SDS011;5858;43.076;25.626;2022-12-18T18:35:26;23.03;;;14.23;;
11604;SDS011;5858;43.076;25.626;2022-12-18T18:37:53;24.03;;;14.30;;
11604;SDS011;5858;43.076;25.626;2022-12-18T18:40:21;21.40;;;13.00;;
11604;SDS011;5858;43.076;25.626;2022-12-18T18:42:48;20.53;;;12.33;;
11604;SDS011;5858;43.076;25.626;2022-12-18T18:45:16;22.47;;;13.20;;
11604;SDS011;5858;43.076;25.626;2022-12-18T18:47:43;20.10;;;12.33;;
11604;SDS011;5858;43.076;25.626;2022-12-18T18:50:10;22.20;;;12.57;;
11604;SDS011;5858;43.076;25.626;2022-12-18T18:52:39;17.13;;;11.07;;
11604;SDS011;5858;43.076;25.626;2022-12-18T18:55:07;18.67;;;12.00;;
11604;SDS011;5858;43.076;25.626;2022-12-18T18:57:34;18.77;;;11.37;;
11604;SDS011;5858;43.076;25.626;2022-12-18T19:00:01;22.07;;;12.97;;
11604;SDS011;5858;43.076;25.626;2022-12-18T19:02:29;23.23;;;15.23;;
11604;SDS011;5858;43.076;25.626;2022-12-18T19:04:58;29.93;;;16.77;;
11604;SDS011;5858;43.076;25.626;2022-12-18T19:07:26;23.07;;;13.00;;
11604;SDS011;5858;43.076;25.626;2022-12-18T19:09:55;27.63;;;15.87;;
11604;SDS011;5858;43.076;25.626;2022-12-18T19:12:24;18.33;;;11.33;;
11604;SDS011;5858;43.076;25.626;2022-12-18T19:15:09;20.90;;;12.63;;
11604;SDS011;5858;43.076;25.626;2022-12-18T19:18:01;20.27;;;12.40;;
11604;SDS011;5858;43.076;25.626;2022-12-18T19:20:28;21.33;;;13.60;;
11604;SDS011;5858;43.076;25.626;2022-12-18T19:23:09;20.57;;;12.43;;
11604;SDS011;5858;43.076;25.626;2022-12-18T19:25:42;21.50;;;12.70;;
11604;SDS011;5858;43.076;25.626;2022-12-18T19:28:09;17.53;;;11.67;;
11604;SDS011;5858;43.076;25.626;2022-12-18T19:30:38;19.87;;;12.70;;
11604;SDS011;5858;43.076;25.626;2022-12-18T19:33:06;20.87;;;13.33;;
11604;SDS011;5858;43.076;25.626;2022-12-18T19:35:33;24.17;;;13.90;;
11604;SDS011;5858;43.076;25.626;2022-12-18T19:38:00;19.83;;;11.87;;
11604;SDS011;5858;43.076;25.626;2022-12-18T19:40:27;26.10;;;16.17;;
11604;SDS011;5858;43.076;25.626;2022-12-18T19:42:56;20.20;;;13.00;;
11604;SDS011;5858;43.076;25.626;2022-12-18T19:45:23;23.43;;;14.40;;
11604;SDS011;5858;43.076;25.626;2022-12-18T19:47:50;18.93;;;12.47;;
11604;SDS011;5858;43.076;25.626;2022-12-18T19:50:21;19.27;;;12.77;;
11604;SDS011;5858;43.076;25.626;2022-12-18T19:52:48;26.87;;;14.23;;
11604;SDS011;5858;43.076;25.626;2022-12-18T19:55:16;29.00;;;16.40;;
11604;SDS011;5858;43.076;25.626;2022-12-18T19:57:50;24.73;;;14.97;;
11604;SDS011;5858;43.076;25.626;2022-12-18T20:00:20;21.90;;;12.97;;
11604;SDS011;5858;43.076;25.626;2022-12-18T20:03:00;25.97;;;15.17;;
11604;SDS011;5858;43.076;25.626;2022-12-18T20:05:30;29.13;;;16.70;;
11604;SDS011;5858;43.076;25.626;2022-12-18T20:07:58;21.37;;;14.33;;
11604;SDS011;5858;43.076;25.626;2022-12-18T20:10:25;20.93;;;13.97;;
11604;SDS011;5858;43.076;25.626;2022-12-18T20:12:56;24.70;;;14.50;;